sensor_id;sensor_type;location;lat;lon;timestamp;pressure;altitude;pressure_sealevel;temperature;humidity
59274;BME280;45044;41.572;24.730;2023-04-27T00:01:44;90642.28;;;5.63;100.00
59274;BME280;45044;41.572;24.730;2023-04-27T00:04:11;90648.94;;;5.60;100.00
59274;BME280;45044;41.572;24.730;2023-04-27T00:06:40;90660.22;;;5.72;100.00
59274;BME280;45044;41.572;24.730;2023-04-27T00:09:07;90648.69;;;5.73;100.00
59274;BME280;45044;41.572;24.730;2023-04-27T00:11:34;90659.44;;;5.68;100.00
59274;BME280;45044;41.572;24.730;2023-04-27T00:14:00;90653.22;;;5.42;100.00
59274;BME280;45044;41.572;24.730;2023-04-27T00:16:27;90662.03;;;5.68;100.00
59274;BME280;45044;41.572;24.730;2023-04-27T00:18:54;90653.75;;;5.58;100.00
59274;BME280;45044;41.572;24.730;2023-04-27T00:21:21;90655.66;;;5.61;100.00
59274;BME280;45044;41.572;24.730;2023-04-27T00:23:47;90651.22;;;5.66;100.00
59274;BME280;45044;41.572;24.730;2023-04-27T00:26:14;90671.81;;;5.78;100.00
59274;BME280;45044;41.572;24.730;2023-04-27T00:28:41;90654.94;;;5.65;100.00
59274;BME280;45044;41.572;24.730;2023-04-27T00:31:08;90610.00;;;5.41;100.00
59274;BME280;45044;41.572;24.730;2023-04-27T00:33:34;90648.66;;;5.69;100.00
59274;BME280;45044;41.572;24.730;2023-04-27T00:36:01;90661.78;;;5.80;100.00
59274;BME280;45044;41.572;24.730;2023-04-27T00:38:28;90666.31;;;5.83;100.00
59274;BME280;45044;41.572;24.730;2023-04-27T00:41:02;90664.78;;;5.82;100.00
59274;BME280;45044;41.572;24.730;2023-04-27T00:43:30;90650.56;;;5.72;100.00
59274;BME280;45044;41.572;24.730;2023-04-27T00:45:58;90667.34;;;5.75;100.00
59274;BME280;45044;41.572;24.730;2023-04-27T00:48:28;90671.19;;;5.89;100.00
59274;BME280;45044;41.572;24.730;2023-04-27T00:50:55;90659.59;;;5.86;100.00
59274;BME280;45044;41.572;24.730;2023-04-27T00:53:22;90653.56;;;5.78;100.00
59274;BME280;45044;41.572;24.730;2023-04-27T00:55:48;90672.59;;;5.79;100.00
59274;BME280;45044;41.572;24.730;2023-04-27T00:58:15;90670.34;;;5.77;100.00
59274;BME280;45044;41.572;24.730;2023-04-27T01:00:42;90666.25;;;5.76;100.00
59274;BME280;45044;41.572;24.730;2023-04-27T01:03:09;90667.81;;;5.88;100.00
59274;BME280;45044;41.572;24.730;2023-04-27T01:05:36;90674.47;;;5.82;100.00
59274;BME280;45044;41.572;24.730;2023-04-27T01:08:04;90660.31;;;5.79;100.00
59274;BME280;45044;41.572;24.730;2023-04-27T01:10:30;90657.56;;;5.65;100.00
59274;BME280;45044;41.572;24.730;2023-04-27T01:12:57;90674.75;;;5.73;100.00
59274;BME280;45044;41.572;24.730;2023-04-27T01:15:24;90655.66;;;5.61;100.00
59274;BME280;45044;41.572;24.730;2023-04-27T01:17:58;90666.31;;;5.83;100.00
59274;BME280;45044;41.572;24.730;2023-04-27T01:20:25;90661.06;;;5.80;100.00
59274;BME280;45044;41.572;24.730;2023-04-27T01:22:56;90674.75;;;5.73;100.00
59274;BME280;45044;41.572;24.730;2023-04-27T01:25:23;90683.31;;;5.70;100.00
59274;BME280;45044;41.572;24.730;2023-04-27T01:27:50;90675.03;;;5.64;100.00
59274;BME280;45044;41.572;24.730;2023-04-27T01:30:17;90682.47;;;5.62;100.00
59274;BME280;45044;41.572;24.730;2023-04-27T01:32:44;90684.72;;;5.63;100.00
59274;BME280;45044;41.572;24.730;2023-04-27T01:35:10;90679.13;;;5.61;100.00
59274;BME280;45044;41.572;24.730;2023-04-27T01:37:37;90689.91;;;5.60;100.00
59274;BME280;45044;41.572;24.730;2023-04-27T01:40:04;90683.06;;;5.48;100.00
59274;BME280;45044;41.572;24.730;2023-04-27T01:42:32;90684.75;;;5.67;100.00
59274;BME280;45044;41.572;24.730;2023-04-27T01:44:58;90686.28;;;5.68;100.00
59274;BME280;45044;41.572;24.730;2023-04-27T01:47:26;90695.94;;;5.68;100.00
59274;BME280;45044;41.572;24.730;2023-04-27T01:49:53;90699.13;;;5.50;100.00
59274;BME280;45044;41.572;24.730;2023-04-27T01:52:19;90701.34;;;5.48;100.00
59274;BME280;45044;41.572;24.730;2023-04-27T01:54:46;90684.69;;;5.25;100.00
59274;BME280;45044;41.572;24.730;2023-04-27T01:57:13;90706.81;;;5.39;100.00
59274;BME280;45044;41.572;24.730;2023-04-27T01:59:45;90700.06;;;5.34;100.00
59274;BME280;45044;41.572;24.730;2023-04-27T02:02:12;90688.84;;;5.30;100.00
59274;BME280;45044;41.572;24.730;2023-04-27T02:04:39;90707.25;;;5.45;100.00
59274;BME280;45044;41.572;24.730;2023-04-27T02:07:09;90655.72;;;5.00;100.00
59274;BME280;45044;41.572;24.730;2023-04-27T02:09:35;90702.03;;;5.10;100.00
59274;BME280;45044;41.572;24.730;2023-04-27T02:12:02;90697.50;;;5.07;100.00
59274;BME280;45044;41.572;24.730;2023-04-27T02:14:29;90712.53;;;5.18;100.00
59274;BME280;45044;41.572;24.730;2023-04-27T02:16:57;90704.88;;;5.32;100.00
59274;BME280;45044;41.572;24.730;2023-04-27T02:19:23;90696.28;;;5.28;100.00
59274;BME280;45044;41.572;24.730;2023-04-27T02:21:50;90693.81;;;5.08;100.00
59274;BME280;45044;41.572;24.730;2023-04-27T02:24:18;90705.25;;;5.31;100.00
59274;BME280;45044;41.572;24.730;2023-04-27T02:26:44;90710.56;;;5.42;100.00
59274;BME280;45044;41.572;24.730;2023-04-27T02:29:11;90703.84;;;5.41;100.00
59274;BME280;45044;41.572;24.730;2023-04-27T02:31:39;90699.47;;;5.48;100.00
59274;BME280;45044;41.572;24.730;2023-04-27T02:34:05;90687.97;;;5.19;100.00
59274;BME280;45044;41.572;24.730;2023-04-27T02:36:40;90701.25;;;5.41;100.00
59274;BME280;45044;41.572;24.730;2023-04-27T02:39:07;90722.25;;;5.21;100.00
59274;BME280;45044;41.572;24.730;2023-04-27T02:41:34;90733.34;;;5.14;100.00
59274;BME280;45044;41.572;24.730;2023-04-27T02:44:01;90713.31;;;5.22;100.00
59274;BME280;45044;41.572;24.730;2023-04-27T02:46:27;90703.69;;;5.26;100.00
59274;BME280;45044;41.572;24.730;2023-04-27T02:48:54;90707.53;;;5.36;100.00
59274;BME280;45044;41.572;24.730;2023-04-27T02:51:21;90724.28;;;5.35;100.00
59274;BME280;45044;41.572;24.730;2023-04-27T02:53:48;90735.06;;;5.33;100.00
59274;BME280;45044;41.572;24.730;2023-04-27T02:56:15;90723.00;;;5.21;100.00
59274;BME280;45044;41.572;24.730;2023-04-27T02:58:42;90728.16;;;5.18;100.00
59274;BME280;45044;41.572;24.730;2023-04-27T03:01:10;90716.03;;;5.02;100.00
59274;BME280;45044;41.572;24.730;2023-04-27T03:03:37;90714.47;;;4.94;100.00
59274;BME280;45044;41.572;24.730;2023-04-27T03:06:04;90718.91;;;4.93;100.00
59274;BME280;45044;41.572;24.730;2023-04-27T03:08:31;90719.75;;;5.01;100.00
59274;BME280;45044;41.572;24.730;2023-04-27T03:10:58;90723.66;;;5.14;100.00
59274;BME280;45044;41.572;24.730;2023-04-27T03:13:24;90737.78;;;5.13;100.00
59274;BME280;45044;41.572;24.730;2023-04-27T03:15:51;90745.06;;;5.00;100.00
59274;BME280;45044;41.572;24.730;2023-04-27T03:18:18;90756.44;;;4.88;100.00
59274;BME280;45044;41.572;24.730;2023-04-27T03:20:45;90743.31;;;4.81;100.00
59274;BME280;45044;41.572;24.730;2023-04-27T03:23:11;90762.72;;;4.87;100.00
59274;BME280;45044;41.572;24.730;2023-04-27T03:25:38;90762.00;;;4.87;100.00
59274;BME280;45044;41.572;24.730;2023-04-27T03:28:05;90755.31;;;4.89;100.00
59274;BME280;45044;41.572;24.730;2023-04-27T03:30:32;90754.13;;;4.83;100.00
59274;BME280;45044;41.572;24.730;2023-04-27T03:32:58;90753.03;;;4.84;100.00
59274;BME280;45044;41.572;24.730;2023-04-27T03:35:25;90745.88;;;4.77;100.00
59274;BME280;45044;41.572;24.730;2023-04-27T03:37:53;90764.34;;;4.69;100.00
59274;BME280;45044;41.572;24.730;2023-04-27T03:40:19;90743.25;;;4.77;100.00
59274;BME280;45044;41.572;24.730;2023-04-27T03:42:46;90762.53;;;4.73;100.00
59274;BME280;45044;41.572;24.730;2023-04-27T03:45:14;90779.66;;;4.74;100.00
59274;BME280;45044;41.572;24.730;2023-04-27T03:47:42;90768.34;;;4.89;100.00
59274;BME280;45044;41.572;24.730;2023-04-27T03:50:09;90740.19;;;4.72;100.00
59274;BME280;45044;41.572;24.730;2023-04-27T03:52:36;90768.75;;;4.91;100.00
59274;BME280;45044;41.572;24.730;2023-04-27T03:55:03;90785.59;;;4.98;100.00
59274;BME280;45044;41.572;24.730;2023-04-27T03:57:30;90775.75;;;5.14;100.00
59274;BME280;45044;41.572;24.730;2023-04-27T03:59:57;90780.19;;;5.10;100.00
59274;BME280;45044;41.572;24.730;2023-04-27T04:02:24;90779.03;;;5.08;100.00
59274;BME280;45044;41.572;24.730;2023-04-27T04:04:51;90791.28;;;5.07;100.00
59274;BME280;45044;41.572;24.730;2023-04-27T04:07:18;90793.63;;;5.12;100.00
59274;BME280;45044;41.572;24.730;2023-04-27T04:09:44;90799.72;;;5.24;100.00
59274;BME280;45044;41.572;24.730;2023-04-27T04:12:11;90791.28;;;5.07;100.00
59274;BME280;45044;41.572;24.730;2023-04-27T04:14:38;90801.91;;;5.22;100.00
59274;BME280;45044;41.572;24.730;2023-04-27T04:17:04;90797.50;;;5.26;100.00
59274;BME280;45044;41.572;24.730;2023-04-27T04:19:32;90811.44;;;5.37;100.00
59274;BME280;45044;41.572;24.730;2023-04-27T04:21:59;90809.84;;;5.29;100.00
59274;BME280;45044;41.572;24.730;2023-04-27T04:24:26;90800.69;;;5.12;100.00
59274;BME280;45044;41.572;24.730;2023-04-27T04:26:53;90827.97;;;5.49;100.00
59274;BME280;45044;41.572;24.730;2023-04-27T04:29:20;90823.25;;;5.89;100.00
59274;BME280;45044;41.572;24.730;2023-04-27T04:31:47;90829.03;;;5.75;100.00
59274;BME280;45044;41.572;24.730;2023-04-27T04:34:14;90829.75;;;5.72;100.00
59274;BME280;45044;41.572;24.730;2023-04-27T04:36:41;90837.53;;;5.99;100.00
59274;BME280;45044;41.572;24.730;2023-04-27T04:39:07;90835.41;;;6.08;100.00
59274;BME280;45044;41.572;24.730;2023-04-27T04:41:34;90822.06;;;6.14;100.00
59274;BME280;45044;41.572;24.730;2023-04-27T04:44:02;90842.50;;;6.08;100.00
59274;BME280;45044;41.572;24.730;2023-04-27T04:46:28;90839.25;;;6.56;100.00
59274;BME280;45044;41.572;24.730;2023-04-27T04:48:56;90835.53;;;6.57;100.00
59274;BME280;45044;41.572;24.730;2023-04-27T04:51:23;90839.59;;;6.97;100.00
59274;BME280;45044;41.572;24.730;2023-04-27T04:53:49;90834.00;;;6.98;100.00
59274;BME280;45044;41.572;24.730;2023-04-27T04:56:16;90843.75;;;7.58;100.00
59274;BME280;45044;41.572;24.730;2023-04-27T04:58:43;90838.16;;;9.29;100.00
59274;BME280;45044;41.572;24.730;2023-04-27T05:01:10;90852.72;;;10.78;100.00
59274;BME280;45044;41.572;24.730;2023-04-27T05:03:37;90857.50;;;10.19;100.00
59274;BME280;45044;41.572;24.730;2023-04-27T05:06:04;90863.16;;;10.03;100.00
59274;BME280;45044;41.572;24.730;2023-04-27T05:08:32;90854.59;;;9.84;100.00
59274;BME280;45044;41.572;24.730;2023-04-27T05:10:59;90873.28;;;11.44;93.15
59274;BME280;45044;41.572;24.730;2023-04-27T05:13:26;90878.06;;;11.10;93.34
59274;BME280;45044;41.572;24.730;2023-04-27T05:15:53;90888.47;;;10.64;96.45
59274;BME280;45044;41.572;24.730;2023-04-27T05:18:20;90880.13;;;9.65;100.00
59274;BME280;45044;41.572;24.730;2023-04-27T05:20:47;90881.28;;;9.13;100.00
59274;BME280;45044;41.572;24.730;2023-04-27T05:23:14;90882.75;;;8.85;100.00
59274;BME280;45044;41.572;24.730;2023-04-27T05:25:41;90869.66;;;8.89;100.00
59274;BME280;45044;41.572;24.730;2023-04-27T05:28:09;90877.00;;;8.43;100.00
59274;BME280;45044;41.572;24.730;2023-04-27T05:30:36;90889.19;;;8.02;100.00
59274;BME280;45044;41.572;24.730;2023-04-27T05:33:03;90879.94;;;7.48;100.00
59274;BME280;45044;41.572;24.730;2023-04-27T05:35:31;90878.81;;;7.53;100.00
59274;BME280;45044;41.572;24.730;2023-04-27T05:37:58;90881.56;;;8.57;100.00
59274;BME280;45044;41.572;24.730;2023-04-27T05:40:25;90880.91;;;9.44;100.00
59274;BME280;45044;41.572;24.730;2023-04-27T05:42:51;90873.28;;;10.12;100.00
59274;BME280;45044;41.572;24.730;2023-04-27T05:45:19;90886.13;;;9.40;100.00
59274;BME280;45044;41.572;24.730;2023-04-27T05:47:46;90878.88;;;11.00;100.00
59274;BME280;45044;41.572;24.730;2023-04-27T05:50:13;90888.88;;;13.05;87.08
59274;BME280;45044;41.572;24.730;2023-04-27T05:52:39;90895.06;;;11.94;93.78
59274;BME280;45044;41.572;24.730;2023-04-27T05:55:10;90888.00;;;11.83;87.92
59274;BME280;45044;41.572;24.730;2023-04-27T05:57:37;90904.28;;;11.71;94.46
59274;BME280;45044;41.572;24.730;2023-04-27T06:00:05;90900.53;;;11.72;100.00
59274;BME280;45044;41.572;24.730;2023-04-27T06:02:36;90899.41;;;11.20;93.17
59274;BME280;45044;41.572;24.730;2023-04-27T06:05:03;90900.75;;;11.46;83.05
59274;BME280;45044;41.572;24.730;2023-04-27T06:07:30;90900.34;;;12.95;92.61
59274;BME280;45044;41.572;24.730;2023-04-27T06:09:57;90896.09;;;11.12;78.30
59274;BME280;45044;41.572;24.730;2023-04-27T06:12:24;90903.78;;;12.26;78.18
59274;BME280;45044;41.572;24.730;2023-04-27T06:14:51;90894.34;;;9.90;96.21
59274;BME280;45044;41.572;24.730;2023-04-27T06:17:17;90909.25;;;10.26;99.32
59274;BME280;45044;41.572;24.730;2023-04-27T06:19:44;90901.38;;;12.00;92.03
59274;BME280;45044;41.572;24.730;2023-04-27T06:22:11;90906.50;;;12.53;78.08
59274;BME280;45044;41.572;24.730;2023-04-27T06:24:38;90901.03;;;11.98;82.54
59274;BME280;45044;41.572;24.730;2023-04-27T06:27:04;90891.06;;;13.11;79.02
59274;BME280;45044;41.572;24.730;2023-04-27T06:29:31;90909.94;;;12.15;77.90
59274;BME280;45044;41.572;24.730;2023-04-27T06:31:58;90903.97;;;13.05;78.96
59274;BME280;45044;41.572;24.730;2023-04-27T06:34:25;90908.34;;;12.56;77.79
59274;BME280;45044;41.572;24.730;2023-04-27T06:36:52;90918.84;;;12.60;76.49
59274;BME280;45044;41.572;24.730;2023-04-27T06:39:19;90910.53;;;11.88;79.08
59274;BME280;45044;41.572;24.730;2023-04-27T06:41:46;90906.81;;;12.24;84.32
59274;BME280;45044;41.572;24.730;2023-04-27T06:44:12;90918.91;;;12.18;81.85
59274;BME280;45044;41.572;24.730;2023-04-27T06:46:39;90891.56;;;11.62;86.79
59274;BME280;45044;41.572;24.730;2023-04-27T06:49:06;90929.22;;;11.02;83.44
59274;BME280;45044;41.572;24.730;2023-04-27T06:51:33;90912.53;;;10.59;89.41
59274;BME280;45044;41.572;24.730;2023-04-27T06:53:59;90926.34;;;10.74;100.00
59274;BME280;45044;41.572;24.730;2023-04-27T06:56:26;90936.06;;;10.88;95.87
59274;BME280;45044;41.572;24.730;2023-04-27T06:58:53;90936.94;;;10.52;92.24
59274;BME280;45044;41.572;24.730;2023-04-27T07:01:20;90923.56;;;10.03;100.00
59274;BME280;45044;41.572;24.730;2023-04-27T07:03:47;90950.25;;;9.61;100.00
59274;BME280;45044;41.572;24.730;2023-04-27T07:06:13;90949.06;;;9.99;100.00
59274;BME280;45044;41.572;24.730;2023-04-27T07:08:41;90937.41;;;10.14;100.00
59274;BME280;45044;41.572;24.730;2023-04-27T07:11:08;90954.03;;;11.01;98.00
59274;BME280;45044;41.572;24.730;2023-04-27T07:13:35;90942.06;;;10.85;92.29
59274;BME280;45044;41.572;24.730;2023-04-27T07:16:02;90945.44;;;12.38;78.53
59274;BME280;45044;41.572;24.730;2023-04-27T07:18:34;90940.78;;;12.85;70.45
59274;BME280;45044;41.572;24.730;2023-04-27T07:21:01;90946.72;;;12.26;70.02
59274;BME280;45044;41.572;24.730;2023-04-27T07:23:28;90940.22;;;14.89;68.67
59274;BME280;45044;41.572;24.730;2023-04-27T07:25:54;90948.75;;;15.17;58.44
59274;BME280;45044;41.572;24.730;2023-04-27T07:28:21;90937.63;;;14.24;60.18
59274;BME280;45044;41.572;24.730;2023-04-27T07:30:48;90943.28;;;13.23;63.96
59274;BME280;45044;41.572;24.730;2023-04-27T07:33:17;90943.00;;;13.45;65.39
59274;BME280;45044;41.572;24.730;2023-04-27T07:35:44;90936.03;;;13.31;63.73
59274;BME280;45044;41.572;24.730;2023-04-27T07:38:11;90932.53;;;12.82;63.20
59274;BME280;45044;41.572;24.730;2023-04-27T07:40:38;90934.91;;;13.04;69.04
59274;BME280;45044;41.572;24.730;2023-04-27T07:43:05;90944.03;;;13.51;62.57
59274;BME280;45044;41.572;24.730;2023-04-27T07:45:32;90957.69;;;13.98;59.80
59274;BME280;45044;41.572;24.730;2023-04-27T07:47:59;90951.53;;;15.64;58.34
59274;BME280;45044;41.572;24.730;2023-04-27T07:50:27;90949.22;;;16.88;52.33
59274;BME280;45044;41.572;24.730;2023-04-27T07:52:55;90955.53;;;14.37;55.13
59274;BME280;45044;41.572;24.730;2023-04-27T07:55:23;90958.94;;;14.58;53.97
59274;BME280;45044;41.572;24.730;2023-04-27T07:57:54;90955.13;;;15.37;55.33
59274;BME280;45044;41.572;24.730;2023-04-27T08:00:21;90949.72;;;16.40;54.13
59274;BME280;45044;41.572;24.730;2023-04-27T08:02:50;90949.13;;;17.48;52.03
59274;BME280;45044;41.572;24.730;2023-04-27T08:05:18;90946.72;;;18.38;47.90
59274;BME280;45044;41.572;24.730;2023-04-27T08:07:45;90957.13;;;18.45;47.99
59274;BME280;45044;41.572;24.730;2023-04-27T08:10:14;90956.69;;;16.34;51.92
59274;BME280;45044;41.572;24.730;2023-04-27T08:12:41;90952.53;;;15.16;52.42
59274;BME280;45044;41.572;24.730;2023-04-27T08:15:08;90962.81;;;14.53;55.10
59274;BME280;45044;41.572;24.730;2023-04-27T08:17:36;90952.22;;;14.09;58.45
59274;BME280;45044;41.572;24.730;2023-04-27T08:20:07;90953.34;;;12.73;60.49
59274;BME280;45044;41.572;24.730;2023-04-27T08:22:37;90958.59;;;12.77;70.05
59274;BME280;45044;41.572;24.730;2023-04-27T08:25:05;90945.69;;;12.13;70.40
59274;BME280;45044;41.572;24.730;2023-04-27T08:27:35;90959.47;;;12.31;74.09
59274;BME280;45044;41.572;24.730;2023-04-27T08:30:03;90954.66;;;12.89;65.76
59274;BME280;45044;41.572;24.730;2023-04-27T08:32:30;90949.13;;;12.48;69.84
59274;BME280;45044;41.572;24.730;2023-04-27T08:34:56;90946.97;;;12.70;70.75
59274;BME280;45044;41.572;24.730;2023-04-27T08:37:23;90947.47;;;12.62;86.14
59274;BME280;45044;41.572;24.730;2023-04-27T08:39:50;90915.13;;;13.16;66.72
59274;BME280;45044;41.572;24.730;2023-04-27T08:42:17;90943.41;;;13.95;66.02
59274;BME280;45044;41.572;24.730;2023-04-27T08:44:44;90942.47;;;14.06;61.35
59274;BME280;45044;41.572;24.730;2023-04-27T08:47:12;90937.16;;;14.91;65.95
59274;BME280;45044;41.572;24.730;2023-04-27T08:49:38;90945.53;;;14.89;61.28
59274;BME280;45044;41.572;24.730;2023-04-27T08:52:13;90943.59;;;14.29;57.07
59274;BME280;45044;41.572;24.730;2023-04-27T08:54:40;90921.00;;;14.24;65.11
59274;BME280;45044;41.572;24.730;2023-04-27T08:57:09;90935.81;;;14.42;59.67
59274;BME280;45044;41.572;24.730;2023-04-27T08:59:36;90946.34;;;13.49;62.66
59274;BME280;45044;41.572;24.730;2023-04-27T09:02:03;90950.75;;;14.08;60.92
59274;BME280;45044;41.572;24.730;2023-04-27T09:04:39;90939.00;;;13.05;67.51
59274;BME280;45044;41.572;24.730;2023-04-27T09:07:13;90950.88;;;12.93;66.83
59274;BME280;45044;41.572;24.730;2023-04-27T09:09:41;90948.78;;;13.09;66.60
59274;BME280;45044;41.572;24.730;2023-04-27T09:12:20;90950.06;;;12.65;75.95
59274;BME280;45044;41.572;24.730;2023-04-27T09:15:01;90953.69;;;12.44;74.44
59274;BME280;45044;41.572;24.730;2023-04-27T09:17:32;90950.03;;;12.30;71.13
59274;BME280;45044;41.572;24.730;2023-04-27T09:20:06;90959.84;;;11.31;68.81
59274;BME280;45044;41.572;24.730;2023-04-27T09:22:51;90952.31;;;11.86;74.01
59274;BME280;45044;41.572;24.730;2023-04-27T09:25:30;90953.44;;;11.85;82.19
59274;BME280;45044;41.572;24.730;2023-04-27T09:27:59;90959.31;;;11.54;77.70
59274;BME280;45044;41.572;24.730;2023-04-27T09:30:27;90953.78;;;11.41;76.91
59274;BME280;45044;41.572;24.730;2023-04-27T09:32:59;90943.63;;;11.40;89.35
59274;BME280;45044;41.572;24.730;2023-04-27T09:35:32;90941.59;;;11.62;90.71
59274;BME280;45044;41.572;24.730;2023-04-27T09:37:59;90946.72;;;11.27;85.83
59274;BME280;45044;41.572;24.730;2023-04-27T09:40:27;90957.06;;;10.96;85.61
59274;BME280;45044;41.572;24.730;2023-04-27T09:42:59;90947.63;;;10.98;86.62
59274;BME280;45044;41.572;24.730;2023-04-27T09:45:31;90962.59;;;11.12;91.99
59274;BME280;45044;41.572;24.730;2023-04-27T09:47:59;90964.81;;;11.21;92.35
59274;BME280;45044;41.572;24.730;2023-04-27T09:50:26;90958.66;;;10.75;100.00
59274;BME280;45044;41.572;24.730;2023-04-27T09:52:53;90954.53;;;10.74;89.21
59274;BME280;45044;41.572;24.730;2023-04-27T09:55:26;90956.41;;;10.73;93.07
59274;BME280;45044;41.572;24.730;2023-04-27T10:09:23;90969.19;;;10.71;99.42
59274;BME280;45044;41.572;24.730;2023-04-27T10:11:52;90982.00;;;10.54;100.00
59274;BME280;45044;41.572;24.730;2023-04-27T10:14:21;90976.00;;;10.61;100.00
59274;BME280;45044;41.572;24.730;2023-04-27T10:16:56;90974.13;;;10.40;100.00
59274;BME280;45044;41.572;24.730;2023-04-27T10:19:23;90983.50;;;10.56;100.00
59274;BME280;45044;41.572;24.730;2023-04-27T10:21:58;90972.25;;;10.51;100.00
59274;BME280;45044;41.572;24.730;2023-04-27T10:24:38;90938.19;;;9.97;100.00
59274;BME280;45044;41.572;24.730;2023-04-27T10:27:07;90976.78;;;10.25;100.00
59274;BME280;45044;41.572;24.730;2023-04-27T10:29:39;90979.78;;;10.24;100.00
59274;BME280;45044;41.572;24.730;2023-04-27T10:34:46;90979.44;;;10.07;100.00
59274;BME280;45044;41.572;24.730;2023-04-27T10:37:14;90992.53;;;10.36;100.00
59274;BME280;45044;41.572;24.730;2023-04-27T10:39:43;90996.31;;;10.28;100.00
59274;BME280;45044;41.572;24.730;2023-04-27T10:42:25;90977.94;;;10.17;100.00
59274;BME280;45044;41.572;24.730;2023-04-27T10:44:55;90961.47;;;9.94;100.00
59274;BME280;45044;41.572;24.730;2023-04-27T10:47:22;90987.72;;;10.02;100.00
59274;BME280;45044;41.572;24.730;2023-04-27T10:49:53;90983.16;;;10.28;100.00
59274;BME280;45044;41.572;24.730;2023-04-27T10:52:20;90947.56;;;10.12;100.00
59274;BME280;45044;41.572;24.730;2023-04-27T10:54:47;90988.81;;;10.23;100.00
59274;BME280;45044;41.572;24.730;2023-04-27T10:57:13;90981.31;;;10.17;100.00
59274;BME280;45044;41.572;24.730;2023-04-27T10:59:48;90989.47;;;10.63;100.00
59274;BME280;45044;41.572;24.730;2023-04-27T11:02:16;90975.97;;;10.69;100.00
59274;BME280;45044;41.572;24.730;2023-04-27T11:04:43;90985.75;;;10.57;100.00
59274;BME280;45044;41.572;24.730;2023-04-27T11:07:10;90984.03;;;11.07;92.07
59274;BME280;45044;41.572;24.730;2023-04-27T11:09:38;90970.31;;;10.70;98.62
59274;BME280;45044;41.572;24.730;2023-04-27T11:12:11;90961.78;;;10.22;100.00
59274;BME280;45044;41.572;24.730;2023-04-27T11:14:38;90976.34;;;10.63;100.00
59274;BME280;45044;41.572;24.730;2023-04-27T11:17:04;90976.63;;;10.87;81.02
59274;BME280;45044;41.572;24.730;2023-04-27T11:19:31;90960.44;;;10.93;100.00
59274;BME280;45044;41.572;24.730;2023-04-27T11:22:03;90973.84;;;11.17;87.98
59274;BME280;45044;41.572;24.730;2023-04-27T11:24:30;90980.50;;;11.32;83.73
59274;BME280;45044;41.572;24.730;2023-04-27T11:26:57;90967.59;;;10.92;90.27
59274;BME280;45044;41.572;24.730;2023-04-27T11:29:36;90977.78;;;10.79;84.38
59274;BME280;45044;41.572;24.730;2023-04-27T11:32:04;90973.41;;;10.32;97.26
59274;BME280;45044;41.572;24.730;2023-04-27T11:34:31;90978.31;;;10.23;92.66
59274;BME280;45044;41.572;24.730;2023-04-27T11:37:03;90974.13;;;10.40;97.87
59274;BME280;45044;41.572;24.730;2023-04-27T11:39:37;90959.91;;;10.23;96.13
59274;BME280;45044;41.572;24.730;2023-04-27T11:42:23;90980.88;;;10.45;100.00
59274;BME280;45044;41.572;24.730;2023-04-27T11:47:20;90973.09;;;11.73;85.56
59274;BME280;45044;41.572;24.730;2023-04-27T11:49:50;90985.47;;;11.80;87.05
59274;BME280;45044;41.572;24.730;2023-04-27T11:52:18;90981.47;;;11.60;90.70
59274;BME280;45044;41.572;24.730;2023-04-27T11:54:51;91001.69;;;11.71;84.63
59274;BME280;45044;41.572;24.730;2023-04-27T11:57:27;90996.66;;;11.38;93.80
59274;BME280;45044;41.572;24.730;2023-04-27T11:59:56;90992.63;;;11.22;92.53
59274;BME280;45044;41.572;24.730;2023-04-27T12:02:25;90992.22;;;11.24;95.39
59274;BME280;45044;41.572;24.730;2023-04-27T12:04:52;90989.56;;;11.28;97.61
59274;BME280;45044;41.572;24.730;2023-04-27T12:07:20;90981.78;;;11.09;94.72
59274;BME280;45044;41.572;24.730;2023-04-27T12:09:47;90981.38;;;11.75;87.95
59274;BME280;45044;41.572;24.730;2023-04-27T12:12:14;90985.38;;;11.91;81.30
59274;BME280;45044;41.572;24.730;2023-04-27T12:14:44;90978.47;;;11.58;72.70
59274;BME280;45044;41.572;24.730;2023-04-27T12:17:11;90982.84;;;11.76;76.45
59274;BME280;45044;41.572;24.730;2023-04-27T12:19:38;90989.56;;;11.84;82.22
59274;BME280;45044;41.572;24.730;2023-04-27T12:22:06;90981.09;;;12.12;67.81
59274;BME280;45044;41.572;24.730;2023-04-27T12:24:34;90983.34;;;12.13;73.79
59274;BME280;45044;41.572;24.730;2023-04-27T12:27:02;90951.59;;;12.28;61.66
59274;BME280;45044;41.572;24.730;2023-04-27T12:29:29;90973.53;;;12.52;59.29
59274;BME280;45044;41.572;24.730;2023-04-27T12:31:58;90933.13;;;11.85;58.93
59274;BME280;45044;41.572;24.730;2023-04-27T12:34:26;90971.41;;;12.40;72.05
59274;BME280;45044;41.572;24.730;2023-04-27T12:36:54;90972.66;;;12.28;70.30
59274;BME280;45044;41.572;24.730;2023-04-27T12:39:22;90963.47;;;12.78;66.66
59274;BME280;45044;41.572;24.730;2023-04-27T12:41:52;90983.22;;;13.57;60.45
59274;BME280;45044;41.572;24.730;2023-04-27T12:44:19;90978.84;;;12.84;56.44
59274;BME280;45044;41.572;24.730;2023-04-27T12:46:47;90976.41;;;13.00;55.51
59274;BME280;45044;41.572;24.730;2023-04-27T12:49:14;90965.34;;;13.09;59.64
59274;BME280;45044;41.572;24.730;2023-04-27T12:51:41;90965.88;;;13.28;60.83
59274;BME280;45044;41.572;24.730;2023-04-27T12:54:08;90970.66;;;13.37;58.64
59274;BME280;45044;41.572;24.730;2023-04-27T12:56:36;90971.22;;;13.52;57.42
59274;BME280;45044;41.572;24.730;2023-04-27T12:59:02;90965.91;;;13.24;60.40
59274;BME280;45044;41.572;24.730;2023-04-27T13:01:30;90959.19;;;12.92;55.87
59274;BME280;45044;41.572;24.730;2023-04-27T13:04:01;90971.47;;;12.71;59.18
59274;BME280;45044;41.572;24.730;2023-04-27T13:06:29;90980.78;;;12.02;58.02
59274;BME280;45044;41.572;24.730;2023-04-27T13:08:58;90971.47;;;11.90;58.60